sensor_id;sensor_type;location;lat;lon;timestamp;P1;durP1;ratioP1;P2;durP2;ratioP2
85939;SDS011;76505;46.706;12.340;2024-02-28T00:00:33;7.7625;;;3.9625;;
85939;SDS011;76505;46.706;12.340;2024-02-28T00:01:33;8.149999999999999;;;3.3;;
85939;SDS011;76505;46.706;12.340;2024-02-28T00:02:33;7.75;;;3.5625;;
85939;SDS011;76505;46.706;12.340;2024-02-28T00:03:33;7.999999999999999;;;3.2874999999999996;;
85939;SDS011;76505;46.706;12.340;2024-02-28T00:04:33;7.675000000000001;;;3.5625;;
85939;SDS011;76505;46.706;12.340;2024-02-28T00:05:33;7.3125;;;3.2625;;
85939;SDS011;76505;46.706;12.340;2024-02-28T00:06:33;7.7250000000000005;;;3.8;;
85939;SDS011;76505;46.706;12.340;2024-02-28T00:07:35;7.612500000000001;;;3.9124999999999996;;
85939;SDS011;76505;46.706;12.340;2024-02-28T00:08:35;9.325;;;3.4;;
85939;SDS011;76505;46.706;12.340;2024-02-28T00:09:33;7.5;;;3.5875000000000004;;
85939;SDS011;76505;46.706;12.340;2024-02-28T00:10:33;7.975;;;3.6624999999999996;;
85939;SDS011;76505;46.706;12.340;2024-02-28T00:11:33;7.5;;;3.5375;;
85939;SDS011;76505;46.706;12.340;2024-02-28T00:12:34;8.125;;;3.1;;
85939;SDS011;76505;46.706;12.340;2024-02-28T00:13:33;8.5125;;;3.4625000000000004;;
85939;SDS011;76505;46.706;12.340;2024-02-28T00:14:33;9.25;;;4.125;;
85939;SDS011;76505;46.706;12.340;2024-02-28T00:15:33;8.025;;;2.9375;;
85939;SDS011;76505;46.706;12.340;2024-02-28T00:16:34;8.2375;;;3.5;;
85939;SDS011;76505;46.706;12.340;2024-02-28T00:17:33;9.712499999999999;;;3.7874999999999996;;
85939;SDS011;76505;46.706;12.340;2024-02-28T00:18:34;11.7625;;;4.475;;
85939;SDS011;76505;46.706;12.340;2024-02-28T00:19:33;8.9625;;;4.0;;
85939;SDS011;76505;46.706;12.340;2024-02-28T00:20:38;7.550000000000001;;;3.325;;
85939;SDS011;76505;46.706;12.340;2024-02-28T00:21:33;8.337499999999999;;;3.3125;;
85939;SDS011;76505;46.706;12.340;2024-02-28T00:22:34;6.924999999999999;;;3.2875;;
85939;SDS011;76505;46.706;12.340;2024-02-28T00:23:34;7.6875;;;3.4875;;
85939;SDS011;76505;46.706;12.340;2024-02-28T00:24:33;7.0875;;;3.2624999999999997;;
85939;SDS011;76505;46.706;12.340;2024-02-28T00:25:33;7.4125000000000005;;;3.1125;;
85939;SDS011;76505;46.706;12.340;2024-02-28T00:26:33;7.237500000000001;;;3.25;;
85939;SDS011;76505;46.706;12.340;2024-02-28T00:27:33;7.0;;;3.2875;;
85939;SDS011;76505;46.706;12.340;2024-02-28T00:28:33;8.95;;;3.7;;
85939;SDS011;76505;46.706;12.340;2024-02-28T00:29:33;7.3375;;;3.7625;;
85939;SDS011;76505;46.706;12.340;2024-02-28T00:30:33;7.112500000000001;;;3.1624999999999996;;
85939;SDS011;76505;46.706;12.340;2024-02-28T00:31:34;8.0375;;;3.3875;;
85939;SDS011;76505;46.706;12.340;2024-02-28T00:32:33;7.55;;;3.375;;
85939;SDS011;76505;46.706;12.340;2024-02-28T00:33:33;7.225;;;3.1;;
85939;SDS011;76505;46.706;12.340;2024-02-28T00:34:33;7.237500000000001;;;3.05;;
85939;SDS011;76505;46.706;12.340;2024-02-28T00:35:33;7.4625;;;3.5;;
85939;SDS011;76505;46.706;12.340;2024-02-28T00:36:33;9.7625;;;3.6500000000000004;;
85939;SDS011;76505;46.706;12.340;2024-02-28T00:37:33;8.75;;;3.6875;;
85939;SDS011;76505;46.706;12.340;2024-02-28T00:38:33;8.6;;;3.4;;
85939;SDS011;76505;46.706;12.340;2024-02-28T00:39:33;7.4625;;;3.4000000000000004;;
85939;SDS011;76505;46.706;12.340;2024-02-28T00:40:34;7.7625;;;3.5125;;
85939;SDS011;76505;46.706;12.340;2024-02-28T00:41:33;7.524999999999999;;;3.2375;;
85939;SDS011;76505;46.706;12.340;2024-02-28T00:42:33;7.0;;;3.2874999999999996;;
85939;SDS011;76505;46.706;12.340;2024-02-28T00:43:33;9.4875;;;3.75;;
85939;SDS011;76505;46.706;12.340;2024-02-28T00:44:34;10.6375;;;4.6375;;
85939;SDS011;76505;46.706;12.340;2024-02-28T00:45:33;9.274999999999999;;;3.5375;;
85939;SDS011;76505;46.706;12.340;2024-02-28T00:46:33;8.2375;;;3.075;;
85939;SDS011;76505;46.706;12.340;2024-02-28T00:47:33;8.15;;;3.5625;;
85939;SDS011;76505;46.706;12.340;2024-02-28T00:48:33;9.1375;;;4.1625;;
85939;SDS011;76505;46.706;12.340;2024-02-28T00:49:33;7.8875;;;3.575;;
85939;SDS011;76505;46.706;12.340;2024-02-28T00:50:33;8.712500000000002;;;4.025;;
85939;SDS011;76505;46.706;12.340;2024-02-28T00:51:34;10.850000000000001;;;4.475;;
85939;SDS011;76505;46.706;12.340;2024-02-28T00:52:33;10.7;;;4.35;;
85939;SDS011;76505;46.706;12.340;2024-02-28T00:53:33;10.25;;;4.9125;;
85939;SDS011;76505;46.706;12.340;2024-02-28T00:54:33;11.0875;;;4.75;;
85939;SDS011;76505;46.706;12.340;2024-02-28T00:55:33;13.4625;;;5.75;;
85939;SDS011;76505;46.706;12.340;2024-02-28T00:56:34;10.375;;;5.1;;
85939;SDS011;76505;46.706;12.340;2024-02-28T00:57:33;13.85;;;6.175;;
85939;SDS011;76505;46.706;12.340;2024-02-28T00:58:33;10.837499999999999;;;4.9625;;
85939;SDS011;76505;46.706;12.340;2024-02-28T00:59:33;10.55;;;5.112500000000001;;
85939;SDS011;76505;46.706;12.340;2024-02-28T01:00:33;11.2;;;5.1;;
85939;SDS011;76505;46.706;12.340;2024-02-28T01:01:33;9.8875;;;4.875;;
85939;SDS011;76505;46.706;12.340;2024-02-28T01:02:33;10.1125;;;4.5375;;
85939;SDS011;76505;46.706;12.340;2024-02-28T01:03:33;9.2;;;4.525;;
85939;SDS011;76505;46.706;12.340;2024-02-28T01:04:34;10.05;;;4.3999999999999995;;
85939;SDS011;76505;46.706;12.340;2024-02-28T01:05:33;10.775;;;4.375;;
85939;SDS011;76505;46.706;12.340;2024-02-28T01:06:33;9.275;;;4.5625;;
85939;SDS011;76505;46.706;12.340;2024-02-28T01:07:33;12.0625;;;4.075;;
85939;SDS011;76505;46.706;12.340;2024-02-28T01:08:33;9.3125;;;3.8249999999999997;;
85939;SDS011;76505;46.706;12.340;2024-02-28T01:09:33;12.3125;;;4.737500000000001;;
85939;SDS011;76505;46.706;12.340;2024-02-28T01:10:33;11.0625;;;4.675000000000001;;
85939;SDS011;76505;46.706;12.340;2024-02-28T01:11:33;11.287500000000001;;;4.575;;
85939;SDS011;76505;46.706;12.340;2024-02-28T01:12:33;8.975000000000001;;;4.7749999999999995;;
85939;SDS011;76505;46.706;12.340;2024-02-28T01:13:33;8.2;;;4.199999999999999;;
85939;SDS011;76505;46.706;12.340;2024-02-28T01:14:33;8.399999999999999;;;4.1375;;
85939;SDS011;76505;46.706;12.340;2024-02-28T01:15:33;9.6125;;;3.4875;;
85939;SDS011;76505;46.706;12.340;2024-02-28T01:16:33;10.7375;;;4.0375;;
85939;SDS011;76505;46.706;12.340;2024-02-28T01:17:33;7.35;;;3.3625;;
85939;SDS011;76505;46.706;12.340;2024-02-28T01:18:38;9.275;;;3.8875;;
85939;SDS011;76505;46.706;12.340;2024-02-28T01:19:33;7.3375;;;3.6875;;
85939;SDS011;76505;46.706;12.340;2024-02-28T01:20:33;8.175;;;3.6000000000000005;;
85939;SDS011;76505;46.706;12.340;2024-02-28T01:21:33;8.4625;;;4.3625;;
85939;SDS011;76505;46.706;12.340;2024-02-28T01:22:33;8.4875;;;3.775;;
85939;SDS011;76505;46.706;12.340;2024-02-28T01:23:33;8.925;;;4.075;;
85939;SDS011;76505;46.706;12.340;2024-02-28T01:24:34;7.75;;;3.25;;
85939;SDS011;76505;46.706;12.340;2024-02-28T01:25:33;7.8;;;3.5125;;
85939;SDS011;76505;46.706;12.340;2024-02-28T01:26:33;7.45;;;3.6625000000000005;;
85939;SDS011;76505;46.706;12.340;2024-02-28T01:27:33;7.112500000000001;;;3.5999999999999996;;
85939;SDS011;76505;46.706;12.340;2024-02-28T01:28:33;9.1;;;3.575;;
85939;SDS011;76505;46.706;12.340;2024-02-28T01:29:33;7.625;;;3.7;;
85939;SDS011;76505;46.706;12.340;2024-02-28T01:30:33;6.887500000000001;;;3.075;;
85939;SDS011;76505;46.706;12.340;2024-02-28T01:31:33;6.1499999999999995;;;2.8874999999999997;;
85939;SDS011;76505;46.706;12.340;2024-02-28T01:32:33;8.4625;;;3.6;;
85939;SDS011;76505;46.706;12.340;2024-02-28T01:33:33;6.387499999999999;;;3.0999999999999996;;
85939;SDS011;76505;46.706;12.340;2024-02-28T01:34:33;6.9875;;;2.7625;;
85939;SDS011;76505;46.706;12.340;2024-02-28T01:35:33;6.9125;;;2.875;;
85939;SDS011;76505;46.706;12.340;2024-02-28T01:36:33;6.975;;;3.1624999999999996;;
85939;SDS011;76505;46.706;12.340;2024-02-28T01:37:33;7.487500000000001;;;3.0999999999999996;;
85939;SDS011;76505;46.706;12.340;2024-02-28T01:38:33;6.2875;;;2.7874999999999996;;
85939;SDS011;76505;46.706;12.340;2024-02-28T01:39:33;8.012500000000001;;;2.5250000000000004;;
85939;SDS011;76505;46.706;12.340;2024-02-28T01:40:33;7.950000000000001;;;3.3375;;
85939;SDS011;76505;46.706;12.340;2024-02-28T01:41:33;6.9;;;2.6500000000000004;;
85939;SDS011;76505;46.706;12.340;2024-02-28T01:42:38;7.1;;;3.0625;;
85939;SDS011;76505;46.706;12.340;2024-02-28T01:43:33;6.5;;;3.3375;;
85939;SDS011;76505;46.706;12.340;2024-02-28T01:44:33;7.075;;;2.7125;;
85939;SDS011;76505;46.706;12.340;2024-02-28T01:45:33;7.875;;;3.1125;;
85939;SDS011;76505;46.706;12.340;2024-02-28T01:46:33;6.625;;;2.85;;
85939;SDS011;76505;46.706;12.340;2024-02-28T01:47:34;6.35;;;2.6125;;
85939;SDS011;76505;46.706;12.340;2024-02-28T01:48:33;7.7;;;2.9375;;
85939;SDS011;76505;46.706;12.340;2024-02-28T01:49:33;8.075;;;3.4124999999999996;;
85939;SDS011;76505;46.706;12.340;2024-02-28T01:50:33;6.800000000000001;;;2.7874999999999996;;
85939;SDS011;76505;46.706;12.340;2024-02-28T01:51:34;7.050000000000001;;;2.7875;;
85939;SDS011;76505;46.706;12.340;2024-02-28T01:52:33;7.137499999999999;;;2.925;;
85939;SDS011;76505;46.706;12.340;2024-02-28T01:53:33;6.7375;;;2.5375;;
85939;SDS011;76505;46.706;12.340;2024-02-28T01:54:33;6.3375;;;2.4;;
85939;SDS011;76505;46.706;12.340;2024-02-28T01:55:33;6.0375;;;2.55;;
85939;SDS011;76505;46.706;12.340;2024-02-28T01:56:33;6.75;;;2.55;;
85939;SDS011;76505;46.706;12.340;2024-02-28T01:57:33;5.8;;;2.2;;
85939;SDS011;76505;46.706;12.340;2024-02-28T01:58:33;5.7875;;;2.225;;
85939;SDS011;76505;46.706;12.340;2024-02-28T01:59:33;5.3375;;;1.85;;
85939;SDS011;76505;46.706;12.340;2024-02-28T02:00:33;5.525;;;2.125;;
85939;SDS011;76505;46.706;12.340;2024-02-28T02:01:33;5.5625;;;1.975;;
85939;SDS011;76505;46.706;12.340;2024-02-28T02:02:38;4.6000000000000005;;;1.8875;;
85939;SDS011;76505;46.706;12.340;2024-02-28T02:03:34;5.362500000000001;;;2.1125;;
85939;SDS011;76505;46.706;12.340;2024-02-28T02:04:33;4.85;;;2.1625;;
85939;SDS011;76505;46.706;12.340;2024-02-28T02:05:33;6.1;;;2.325;;
85939;SDS011;76505;46.706;12.340;2024-02-28T02:06:33;5.25;;;1.7375;;
85939;SDS011;76505;46.706;12.340;2024-02-28T02:07:33;4.762499999999999;;;2.025;;
85939;SDS011;76505;46.706;12.340;2024-02-28T02:08:34;5.8375;;;2.175;;
85939;SDS011;76505;46.706;12.340;2024-02-28T02:09:34;5.5875;;;2.125;;
85939;SDS011;76505;46.706;12.340;2024-02-28T02:10:33;5.5375;;;2.1375;;
85939;SDS011;76505;46.706;12.340;2024-02-28T02:11:33;6.362499999999999;;;2.4;;
85939;SDS011;76505;46.706;12.340;2024-02-28T02:12:33;5.0375;;;2.075;;
85939;SDS011;76505;46.706;12.340;2024-02-28T02:13:35;6.75;;;2.4;;
85939;SDS011;76505;46.706;12.340;2024-02-28T02:14:33;5.925;;;2.125;;
85939;SDS011;76505;46.706;12.340;2024-02-28T02:15:33;5.9;;;2.2375;;
85939;SDS011;76505;46.706;12.340;2024-02-28T02:16:33;5.9375;;;2.1875;;
85939;SDS011;76505;46.706;12.340;2024-02-28T02:17:33;5.4875;;;2.3375;;
85939;SDS011;76505;46.706;12.340;2024-02-28T02:18:33;5.449999999999999;;;1.975;;
85939;SDS011;76505;46.706;12.340;2024-02-28T02:19:33;5.525;;;2.025;;
85939;SDS011;76505;46.706;12.340;2024-02-28T02:20:34;5.25;;;2.1750000000000003;;
85939;SDS011;76505;46.706;12.340;2024-02-28T02:21:34;5.425000000000001;;;2.1;;
85939;SDS011;76505;46.706;12.340;2024-02-28T02:22:34;4.6125;;;1.9;;
85939;SDS011;76505;46.706;12.340;2024-02-28T02:23:33;4.6625;;;1.525;;
85939;SDS011;76505;46.706;12.340;2024-02-28T02:24:33;5.05;;;1.8125;;
85939;SDS011;76505;46.706;12.340;2024-02-28T02:25:33;5.0625;;;1.7000000000000002;;
85939;SDS011;76505;46.706;12.340;2024-02-28T02:26:33;4.9875;;;1.85;;
85939;SDS011;76505;46.706;12.340;2024-02-28T02:27:33;4.8875;;;1.675;;
85939;SDS011;76505;46.706;12.340;2024-02-28T02:28:33;5.25;;;1.7999999999999998;;
85939;SDS011;76505;46.706;12.340;2024-02-28T02:29:33;7.125;;;1.975;;
85939;SDS011;76505;46.706;12.340;2024-02-28T02:30:33;4.925;;;1.825;;
85939;SDS011;76505;46.706;12.340;2024-02-28T02:31:33;6.175;;;1.875;;
85939;SDS011;76505;46.706;12.340;2024-02-28T02:32:33;4.1;;;1.4749999999999999;;
85939;SDS011;76505;46.706;12.340;2024-02-28T02:33:33;4.5375;;;1.4749999999999999;;
85939;SDS011;76505;46.706;12.340;2024-02-28T02:34:34;3.475;;;1.2625;;
85939;SDS011;76505;46.706;12.340;2024-02-28T02:35:33;4.525;;;1.5625;;
85939;SDS011;76505;46.706;12.340;2024-02-28T02:36:33;4.4125;;;1.75;;
85939;SDS011;76505;46.706;12.340;2024-02-28T02:37:34;4.7875000000000005;;;1.6625;;
85939;SDS011;76505;46.706;12.340;2024-02-28T02:38:33;4.8875;;;1.5125;;
85939;SDS011;76505;46.706;12.340;2024-02-28T02:39:33;4.6125;;;1.55;;
85939;SDS011;76505;46.706;12.340;2024-02-28T02:40:33;5.074999999999999;;;1.6749999999999998;;
85939;SDS011;76505;46.706;12.340;2024-02-28T02:41:33;4.8625;;;1.3;;
85939;SDS011;76505;46.706;12.340;2024-02-28T02:42:33;4.324999999999999;;;1.375;;
85939;SDS011;76505;46.706;12.340;2024-02-28T02:43:33;4.2875;;;1.4;;
85939;SDS011;76505;46.706;12.340;2024-02-28T02:44:33;4.2;;;1.1124999999999998;;
85939;SDS011;76505;46.706;12.340;2024-02-28T02:45:33;4.4750000000000005;;;1.375;;
85939;SDS011;76505;46.706;12.340;2024-02-28T02:46:33;3.8125;;;1.35;;
85939;SDS011;76505;46.706;12.340;2024-02-28T02:47:33;5.2875;;;1.5625;;
85939;SDS011;76505;46.706;12.340;2024-02-28T02:48:33;6.675;;;1.8250000000000002;;
85939;SDS011;76505;46.706;12.340;2024-02-28T02:49:33;4.725;;;1.6;;
85939;SDS011;76505;46.706;12.340;2024-02-28T02:50:33;4.8;;;1.4874999999999998;;
85939;SDS011;76505;46.706;12.340;2024-02-28T02:51:33;4.6625;;;1.3625;;
85939;SDS011;76505;46.706;12.340;2024-02-28T02:52:33;4.525;;;1.2875;;
85939;SDS011;76505;46.706;12.340;2024-02-28T02:53:33;4.1875;;;1.4125;;
85939;SDS011;76505;46.706;12.340;2024-02-28T02:54:33;5.05;;;1.2375;;
85939;SDS011;76505;46.706;12.340;2024-02-28T02:55:33;3.7;;;1.1625;;
85939;SDS011;76505;46.706;12.340;2024-02-28T02:56:33;3.0250000000000004;;;1.0125;;
85939;SDS011;76505;46.706;12.340;2024-02-28T02:57:33;4.324999999999999;;;1.2000000000000002;;
85939;SDS011;76505;46.706;12.340;2024-02-28T02:58:33;4.05;;;1.1;;
85939;SDS011;76505;46.706;12.340;2024-02-28T02:59:33;3.575;;;1.0125;;
85939;SDS011;76505;46.706;12.340;2024-02-28T03:00:33;4.3125;;;1.3375;;
85939;SDS011;76505;46.706;12.340;2024-02-28T03:01:33;3.6875;;;1.35;;
85939;SDS011;76505;46.706;12.340;2024-02-28T03:02:33;5.8625;;;1.7625000000000002;;
85939;SDS011;76505;46.706;12.340;2024-02-28T03:03:33;8.625;;;1.9625000000000001;;
85939;SDS011;76505;46.706;12.340;2024-02-28T03:04:33;9.1875;;;2.0875000000000004;;
85939;SDS011;76505;46.706;12.340;2024-02-28T03:05:33;6.25;;;2.0;;
85939;SDS011;76505;46.706;12.340;2024-02-28T03:06:34;5.887499999999999;;;1.6625;;
85939;SDS011;76505;46.706;12.340;2024-02-28T03:07:34;6.4375;;;1.7625000000000002;;
85939;SDS011;76505;46.706;12.340;2024-02-28T03:08:33;6.5625;;;2.25;;
85939;SDS011;76505;46.706;12.340;2024-02-28T03:09:34;8.899999999999999;;;3.0125;;
85939;SDS011;76505;46.706;12.340;2024-02-28T03:10:33;9.3;;;3.1875;;
85939;SDS011;76505;46.706;12.340;2024-02-28T03:11:35;10.1;;;3.525;;
85939;SDS011;76505;46.706;12.340;2024-02-28T03:12:33;13.087499999999999;;;4.4;;
85939;SDS011;76505;46.706;12.340;2024-02-28T03:13:33;13.212499999999999;;;4.7125;;
85939;SDS011;76505;46.706;12.340;2024-02-28T03:14:34;12.0;;;4.275;;
85939;SDS011;76505;46.706;12.340;2024-02-28T03:15:34;12.5875;;;4.925000000000001;;
85939;SDS011;76505;46.706;12.340;2024-02-28T03:16:40;9.5;;;4.0125;;
85939;SDS011;76505;46.706;12.340;2024-02-28T03:17:33;11.0125;;;3.9875;;
85939;SDS011;76505;46.706;12.340;2024-02-28T03:18:33;10.5;;;3.425;;
85939;SDS011;76505;46.706;12.340;2024-02-28T03:19:35;14.3;;;3.875;;
85939;SDS011;76505;46.706;12.340;2024-02-28T03:20:34;10.9375;;;4.125;;
85939;SDS011;76505;46.706;12.340;2024-02-28T03:21:34;11.149999999999999;;;4.3375;;
85939;SDS011;76505;46.706;12.340;2024-02-28T03:22:33;9.350000000000001;;;3.6125000000000003;;
85939;SDS011;76505;46.706;12.340;2024-02-28T03:23:34;11.4875;;;4.1125;;
85939;SDS011;76505;46.706;12.340;2024-02-28T03:24:35;15.275;;;3.7375;;
85939;SDS011;76505;46.706;12.340;2024-02-28T03:25:34;10.112499999999999;;;3.7625;;
85939;SDS011;76505;46.706;12.340;2024-02-28T03:26:33;14.325;;;4.3125;;
85939;SDS011;76505;46.706;12.340;2024-02-28T03:27:33;9.425;;;3.6125;;
85939;SDS011;76505;46.706;12.340;2024-02-28T03:28:33;10.075;;;3.8625;;
85939;SDS011;76505;46.706;12.340;2024-02-28T03:29:33;10.525;;;3.5;;
85939;SDS011;76505;46.706;12.340;2024-02-28T03:30:33;11.1875;;;3.9374999999999996;;
85939;SDS011;76505;46.706;12.340;2024-02-28T03:31:33;8.85;;;3.75;;
85939;SDS011;76505;46.706;12.340;2024-02-28T03:32:33;9.125;;;3.25;;
85939;SDS011;76505;46.706;12.340;2024-02-28T03:33:35;8.5375;;;3.275;;
85939;SDS011;76505;46.706;12.340;2024-02-28T03:34:34;8.7375;;;3.175;;
85939;SDS011;76505;46.706;12.340;2024-02-28T03:35:33;9.0;;;3.9875000000000003;;
85939;SDS011;76505;46.706;12.340;2024-02-28T03:36:34;10.3125;;;3.4875;;
85939;SDS011;76505;46.706;12.340;2024-02-28T03:37:33;9.825;;;3.3375;;
85939;SDS011;76505;46.706;12.340;2024-02-28T03:38:33;7.987500000000001;;;2.8625;;
85939;SDS011;76505;46.706;12.340;2024-02-28T03:39:34;9.075;;;3.2625;;
85939;SDS011;76505;46.706;12.340;2024-02-28T03:40:33;10.024999999999999;;;3.2;;
85939;SDS011;76505;46.706;12.340;2024-02-28T03:41:34;8.1875;;;3.175;;
85939;SDS011;76505;46.706;12.340;2024-02-28T03:42:35;13.4375;;;3.6125000000000003;;
85939;SDS011;76505;46.706;12.340;2024-02-28T03:43:33;9.287500000000001;;;3.4624999999999995;;
85939;SDS011;76505;46.706;12.340;2024-02-28T03:44:33;12.0125;;;3.3625000000000003;;
85939;SDS011;76505;46.706;12.340;2024-02-28T03:45:36;8.274999999999999;;;3.425;;
85939;SDS011;76505;46.706;12.340;2024-02-28T03:46:34;10.95;;;3.2625;;
85939;SDS011;76505;46.706;12.340;2024-02-28T03:47:33;10.3625;;;3.725;;
85939;SDS011;76505;46.706;12.340;2024-02-28T03:48:33;8.5;;;3.4625;;
85939;SDS011;76505;46.706;12.340;2024-02-28T03:49:33;8.675;;;3.1625;;
85939;SDS011;76505;46.706;12.340;2024-02-28T03:50:33;8.4875;;;2.6875;;
85939;SDS011;76505;46.706;12.340;2024-02-28T03:51:38;10.275;;;2.9499999999999997;;
85939;SDS011;76505;46.706;12.340;2024-02-28T03:52:33;7.074999999999999;;;2.1875;;
85939;SDS011;76505;46.706;12.340;2024-02-28T03:53:33;7.875;;;2.7;;
85939;SDS011;76505;46.706;12.340;2024-02-28T03:54:33;6.5625;;;2.5375;;
85939;SDS011;76505;46.706;12.340;2024-02-28T03:55:33;8.7;;;2.5250000000000004;;
85939;SDS011;76505;46.706;12.340;2024-02-28T03:56:35;7.7125;;;2.7249999999999996;;
85939;SDS011;76505;46.706;12.340;2024-02-28T03:57:33;6.3625;;;2.2249999999999996;;
85939;SDS011;76505;46.706;12.340;2024-02-28T03:58:33;5.925000000000001;;;2.45;;
85939;SDS011;76505;46.706;12.340;2024-02-28T03:59:33;6.6875;;;2.4499999999999997;;
85939;SDS011;76505;46.706;12.340;2024-02-28T04:00:33;6.45;;;1.8625;;
85939;SDS011;76505;46.706;12.340;2024-02-28T04:01:33;6.4;;;1.8125;;
85939;SDS011;76505;46.706;12.340;2024-02-28T04:02:33;7.1625000000000005;;;2.0625;;
85939;SDS011;76505;46.706;12.340;2024-02-28T04:03:33;5.6;;;1.8624999999999998;;
85939;SDS011;76505;46.706;12.340;2024-02-28T04:04:34;7.0;;;2.2375;;
85939;SDS011;76505;46.706;12.340;2024-02-28T04:05:33;5.925;;;2.4;;
85939;SDS011;76505;46.706;12.340;2024-02-28T04:06:34;6.112500000000001;;;2.2375;;
85939;SDS011;76505;46.706;12.340;2024-02-28T04:07:34;8.075;;;2.475;;
85939;SDS011;76505;46.706;12.340;2024-02-28T04:08:33;8.537500000000001;;;2.75;;
85939;SDS011;76505;46.706;12.340;2024-02-28T04:09:33;8.837499999999999;;;2.8374999999999995;;
85939;SDS011;76505;46.706;12.340;2024-02-28T04:10:34;7.512499999999999;;;3.0125;;
85939;SDS011;76505;46.706;12.340;2024-02-28T04:11:34;7.6875;;;2.8249999999999997;;
85939;SDS011;76505;46.706;12.340;2024-02-28T04:12:33;6.425;;;2.1875;;
85939;SDS011;76505;46.706;12.340;2024-02-28T04:13:33;7.25;;;2.5125;;
85939;SDS011;76505;46.706;12.340;2024-02-28T04:14:36;7.512499999999999;;;2.4375;;
85939;SDS011;76505;46.706;12.340;2024-02-28T04:15:33;7.325000000000001;;;2.6375;;
85939;SDS011;76505;46.706;12.340;2024-02-28T04:16:33;12.350000000000001;;;2.3875;;
85939;SDS011;76505;46.706;12.340;2024-02-28T04:17:33;5.95;;;2.3374999999999995;;
85939;SDS011;76505;46.706;12.340;2024-02-28T04:18:33;9.0375;;;2.5999999999999996;;
85939;SDS011;76505;46.706;12.340;2024-02-28T04:19:34;7.0875;;;2.4375;;
85939;SDS011;76505;46.706;12.340;2024-02-28T04:20:34;6.4624999999999995;;;2.4625;;
85939;SDS011;76505;46.706;12.340;2024-02-28T04:21:33;7.3500000000000005;;;3.0;;
85939;SDS011;76505;46.706;12.340;2024-02-28T04:22:33;8.962499999999999;;;3.1000000000000005;;
85939;SDS011;76505;46.706;12.340;2024-02-28T04:23:33;7.6875;;;2.6125;;
85939;SDS011;76505;46.706;12.340;2024-02-28T04:24:33;8.225;;;2.7874999999999996;;
85939;SDS011;76505;46.706;12.340;2024-02-28T04:25:34;7.475;;;2.8125;;
85939;SDS011;76505;46.706;12.340;2024-02-28T04:26:33;7.1125;;;3.1875;;
85939;SDS011;76505;46.706;12.340;2024-02-28T04:27:33;8.425;;;2.5375;;
85939;SDS011;76505;46.706;12.340;2024-02-28T04:28:38;6.3875;;;2.5625;;
85939;SDS011;76505;46.706;12.340;2024-02-28T04:29:33;9.4625;;;2.7875;;
85939;SDS011;76505;46.706;12.340;2024-02-28T04:30:34;7.3125;;;2.9;;
85939;SDS011;76505;46.706;12.340;2024-02-28T04:31:34;6.8125;;;3.0250000000000004;;
85939;SDS011;76505;46.706;12.340;2024-02-28T04:32:35;8.7625;;;3.1375;;
85939;SDS011;76505;46.706;12.340;2024-02-28T04:33:33;7.0875;;;2.6875;;
85939;SDS011;76505;46.706;12.340;2024-02-28T04:34:35;5.825;;;2.525;;
85939;SDS011;76505;46.706;12.340;2024-02-28T04:35:34;8.162500000000001;;;2.6375;;
85939;SDS011;76505;46.706;12.340;2024-02-28T04:36:33;13.7375;;;3.35;;
85939;SDS011;76505;46.706;12.340;2024-02-28T04:37:35;8.5;;;2.9375;;
85939;SDS011;76505;46.706;12.340;2024-02-28T04:38:33;7.5375;;;2.9125;;
85939;SDS011;76505;46.706;12.340;2024-02-28T04:39:33;6.725;;;2.55;;
85939;SDS011;76505;46.706;12.340;2024-02-28T04:40:34;8.212499999999999;;;3.4499999999999997;;
85939;SDS011;76505;46.706;12.340;2024-02-28T04:41:34;6.5249999999999995;;;2.25;;
85939;SDS011;76505;46.706;12.340;2024-02-28T04:42:33;7.3;;;2.25;;
85939;SDS011;76505;46.706;12.340;2024-02-28T04:43:33;7.45;;;2.575;;
85939;SDS011;76505;46.706;12.340;2024-02-28T04:44:33;6.7;;;2.475;;
85939;SDS011;76505;46.706;12.340;2024-02-28T04:45:33;6.5249999999999995;;;2.3125;;
85939;SDS011;76505;46.706;12.340;2024-02-28T04:46:34;6.050000000000001;;;2.1500000000000004;;
85939;SDS011;76505;46.706;12.340;2024-02-28T04:47:33;7.550000000000001;;;2.3125;;
85939;SDS011;76505;46.706;12.340;2024-02-28T04:48:34;6.95;;;2.4125;;
85939;SDS011;76505;46.706;12.340;2024-02-28T04:49:36;7.9125;;;2.5125;;
85939;SDS011;76505;46.706;12.340;2024-02-28T04:50:33;6.612500000000001;;;2.8625;;
85939;SDS011;76505;46.706;12.340;2024-02-28T04:51:33;6.9125000000000005;;;2.675;;
85939;SDS011;76505;46.706;12.340;2024-02-28T04:52:33;5.800000000000001;;;2.1125000000000003;;
85939;SDS011;76505;46.706;12.340;2024-02-28T04:53:34;6.9625;;;2.5125;;
85939;SDS011;76505;46.706;12.340;2024-02-28T04:54:33;8.3875;;;2.5625;;
85939;SDS011;76505;46.706;12.340;2024-02-28T04:55:33;6.862500000000001;;;2.9749999999999996;;
85939;SDS011;76505;46.706;12.340;2024-02-28T04:56:38;9.6875;;;3.2125000000000004;;
85939;SDS011;76505;46.706;12.340;2024-02-28T04:57:33;9.2;;;3.6625;;
85939;SDS011;76505;46.706;12.340;2024-02-28T04:58:34;6.65;;;2.4375;;
85939;SDS011;76505;46.706;12.340;2024-02-28T04:59:33;7.512500000000001;;;2.9000000000000004;;
85939;SDS011;76505;46.706;12.340;2024-02-28T05:00:33;8.4625;;;2.775;;
85939;SDS011;76505;46.706;12.340;2024-02-28T05:01:35;8.075000000000001;;;3.2125000000000004;;
85939;SDS011;76505;46.706;12.340;2024-02-28T05:02:33;8.2625;;;3.45;;
85939;SDS011;76505;46.706;12.340;2024-02-28T05:03:33;8.8125;;;4.137499999999999;;
85939;SDS011;76505;46.706;12.340;2024-02-28T05:04:33;14.4;;;7.1875;;
85939;SDS011;76505;46.706;12.340;2024-02-28T05:05:34;11.787500000000001;;;7.6875;;
85939;SDS011;76505;46.706;12.340;2024-02-28T05:06:33;9.725000000000001;;;4.1625;;
85939;SDS011;76505;46.706;12.340;2024-02-28T05:07:33;11.6875;;;4.575000000000001;;
85939;SDS011;76505;46.706;12.340;2024-02-28T05:08:34;12.7875;;;4.4875;;
85939;SDS011;76505;46.706;12.340;2024-02-28T05:09:33;11.575;;;4.299999999999999;;
85939;SDS011;76505;46.706;12.340;2024-02-28T05:10:34;8.75;;;4.1;;
85939;SDS011;76505;46.706;12.340;2024-02-28T05:11:33;10.537500000000001;;;4.387499999999999;;
85939;SDS011;76505;46.706;12.340;2024-02-28T05:12:34;8.775;;;3.8874999999999997;;
85939;SDS011;76505;46.706;12.340;2024-02-28T05:13:34;8.7375;;;3.75;;
85939;SDS011;76505;46.706;12.340;2024-02-28T05:14:33;9.125;;;3.9375;;
85939;SDS011;76505;46.706;12.340;2024-02-28T05:15:33;7.9125;;;3.8625;;